메인 페이지
METAR-TAF:

METAR-TAF

공항 :

칼즈배드, 뉴멕시코, 미국

위도: 32-20-15N, 경도: 104-15-48W, 고도: 1004m

현재 날씨관측

예보는 37분 전, 22:53시(UTC)에 발표되었습니다.
남남동11kt, 순간 최대 풍속 21kt
온도 39°C
습도 16%
기압 1013 hPa
시정: 16.1km
고도 10000ft 상공 구름 조금

METAR: KCNM 132253Z AUTO 15011G21KT 10SM FEW100 39/09 A2992 RMK AO2 SLP065 T03890094

시각: 17:30 (23:30 UTC)

예보

예보는 6 시간 10분 전, 17:20시(UTC)에 발표되었습니다.
예보 대상 시간: 13일 18시부터 14일 18시까지 (UTC)
남남동10kt
시정: 10km
맑음

TAF: KCNM 131720Z 1318/1418 15010KT P6SM SKC

4,000개 이상의 공항 관측 자료 및 예보 (METAR 및 TAF 보고).

지도상에서 검색 가능한 기상관측소가 노란 점과 빨간 점으로 표시되어 있습니다.

기상관측소 명을 보려면 표시 위로 마우스를 이동하세요.

날씨 관측과 예보를 보려면 클릭하세요.

지도 변경 : 확대하려면 엑스 표시가 있는 녹색 버튼, 축소하려면 빼기 표시가 있는 녹색 버튼, 다음 페이지의 지도를 보려면 녹색 화살표를 클릭하세요.


METAR-TAF: